sensor_id;sensor_type;location;lat;lon;timestamp;temperature;humidity
22680;DHT22;11507;44.858;10.374;2023-03-08T00:00:57;10.30;99.90
22680;DHT22;11507;44.858;10.374;2023-03-08T00:03:23;10.20;99.90
22680;DHT22;11507;44.858;10.374;2023-03-08T00:05:48;10.10;99.90
22680;DHT22;11507;44.858;10.374;2023-03-08T00:08:15;10.10;99.90
22680;DHT22;11507;44.858;10.374;2023-03-08T00:10:41;10.00;99.90
22680;DHT22;11507;44.858;10.374;2023-03-08T00:13:07;10.00;99.90
22680;DHT22;11507;44.858;10.374;2023-03-08T00:15:34;10.00;99.90
22680;DHT22;11507;44.858;10.374;2023-03-08T00:18:00;10.00;99.90
22680;DHT22;11507;44.858;10.374;2023-03-08T00:20:26;10.10;99.90
22680;DHT22;11507;44.858;10.374;2023-03-08T00:22:53;10.10;99.90
22680;DHT22;11507;44.858;10.374;2023-03-08T00:25:18;10.10;99.90
22680;DHT22;11507;44.858;10.374;2023-03-08T00:27:44;10.10;99.90
22680;DHT22;11507;44.858;10.374;2023-03-08T00:30:10;10.00;99.90
22680;DHT22;11507;44.858;10.374;2023-03-08T00:32:36;10.00;99.90
22680;DHT22;11507;44.858;10.374;2023-03-08T00:35:03;10.00;99.90
22680;DHT22;11507;44.858;10.374;2023-03-08T00:37:29;9.90;99.90
22680;DHT22;11507;44.858;10.374;2023-03-08T00:39:55;9.80;99.90
22680;DHT22;11507;44.858;10.374;2023-03-08T00:42:21;9.60;99.90
22680;DHT22;11507;44.858;10.374;2023-03-08T00:44:47;9.60;99.90
22680;DHT22;11507;44.858;10.374;2023-03-08T00:47:13;9.60;99.90
22680;DHT22;11507;44.858;10.374;2023-03-08T00:49:41;9.50;99.90
22680;DHT22;11507;44.858;10.374;2023-03-08T00:52:08;9.50;99.90
22680;DHT22;11507;44.858;10.374;2023-03-08T00:54:35;9.40;99.90
22680;DHT22;11507;44.858;10.374;2023-03-08T00:57:01;9.30;99.90
22680;DHT22;11507;44.858;10.374;2023-03-08T00:59:27;9.30;99.90
22680;DHT22;11507;44.858;10.374;2023-03-08T01:01:54;9.20;99.90
22680;DHT22;11507;44.858;10.374;2023-03-08T01:04:20;9.20;99.90
22680;DHT22;11507;44.858;10.374;2023-03-08T01:06:46;9.00;99.90
22680;DHT22;11507;44.858;10.374;2023-03-08T01:09:12;8.90;99.90
22680;DHT22;11507;44.858;10.374;2023-03-08T01:11:38;8.80;99.90
22680;DHT22;11507;44.858;10.374;2023-03-08T01:14:05;8.60;99.90
22680;DHT22;11507;44.858;10.374;2023-03-08T01:16:35;8.50;99.90
22680;DHT22;11507;44.858;10.374;2023-03-08T01:19:02;8.30;99.90
22680;DHT22;11507;44.858;10.374;2023-03-08T01:21:29;8.20;99.90
22680;DHT22;11507;44.858;10.374;2023-03-08T01:23:55;8.10;99.90
22680;DHT22;11507;44.858;10.374;2023-03-08T01:26:22;8.00;99.90
22680;DHT22;11507;44.858;10.374;2023-03-08T01:28:50;7.90;99.90
22680;DHT22;11507;44.858;10.374;2023-03-08T01:31:16;7.80;99.90
22680;DHT22;11507;44.858;10.374;2023-03-08T01:33:43;7.70;99.90
22680;DHT22;11507;44.858;10.374;2023-03-08T01:36:14;7.50;99.90
22680;DHT22;11507;44.858;10.374;2023-03-08T01:38:43;7.40;99.90
22680;DHT22;11507;44.858;10.374;2023-03-08T01:41:22;7.20;99.90
22680;DHT22;11507;44.858;10.374;2023-03-08T01:43:49;7.10;99.90
22680;DHT22;11507;44.858;10.374;2023-03-08T01:46:30;6.90;99.90
22680;DHT22;11507;44.858;10.374;2023-03-08T01:49:19;6.90;99.90
22680;DHT22;11507;44.858;10.374;2023-03-08T01:54:32;6.90;99.90
22680;DHT22;11507;44.858;10.374;2023-03-08T01:57:07;6.80;99.90
22680;DHT22;11507;44.858;10.374;2023-03-08T01:59:34;6.70;99.90
22680;DHT22;11507;44.858;10.374;2023-03-08T02:01:59;6.50;99.90
22680;DHT22;11507;44.858;10.374;2023-03-08T02:04:27;6.40;99.90
22680;DHT22;11507;44.858;10.374;2023-03-08T02:06:54;6.20;99.90
22680;DHT22;11507;44.858;10.374;2023-03-08T02:09:22;6.00;99.90
22680;DHT22;11507;44.858;10.374;2023-03-08T02:11:51;5.90;99.90
22680;DHT22;11507;44.858;10.374;2023-03-08T02:14:17;5.90;99.90
22680;DHT22;11507;44.858;10.374;2023-03-08T02:16:46;5.90;99.90
22680;DHT22;11507;44.858;10.374;2023-03-08T02:19:38;5.90;99.90
22680;DHT22;11507;44.858;10.374;2023-03-08T02:22:11;5.90;99.90
22680;DHT22;11507;44.858;10.374;2023-03-08T02:24:38;5.90;99.90
22680;DHT22;11507;44.858;10.374;2023-03-08T02:27:05;5.80;99.90
22680;DHT22;11507;44.858;10.374;2023-03-08T02:29:33;5.80;99.90
22680;DHT22;11507;44.858;10.374;2023-03-08T02:31:58;5.70;99.90
22680;DHT22;11507;44.858;10.374;2023-03-08T02:34:24;5.70;99.90
22680;DHT22;11507;44.858;10.374;2023-03-08T02:36:50;5.70;99.90
22680;DHT22;11507;44.858;10.374;2023-03-08T02:39:17;5.60;99.90
22680;DHT22;11507;44.858;10.374;2023-03-08T02:41:42;5.50;99.90
22680;DHT22;11507;44.858;10.374;2023-03-08T02:44:08;5.40;99.90
22680;DHT22;11507;44.858;10.374;2023-03-08T02:46:34;5.40;99.90
22680;DHT22;11507;44.858;10.374;2023-03-08T02:49:00;5.30;99.90
22680;DHT22;11507;44.858;10.374;2023-03-08T02:51:26;5.30;99.90
22680;DHT22;11507;44.858;10.374;2023-03-08T02:53:52;5.20;99.90
22680;DHT22;11507;44.858;10.374;2023-03-08T02:56:17;5.10;99.90
22680;DHT22;11507;44.858;10.374;2023-03-08T02:58:44;5.10;99.90
22680;DHT22;11507;44.858;10.374;2023-03-08T03:01:11;5.00;99.90
22680;DHT22;11507;44.858;10.374;2023-03-08T03:03:41;4.90;99.90
22680;DHT22;11507;44.858;10.374;2023-03-08T03:06:17;4.90;99.90
22680;DHT22;11507;44.858;10.374;2023-03-08T03:08:48;4.80;99.90
22680;DHT22;11507;44.858;10.374;2023-03-08T03:11:17;4.80;99.90
22680;DHT22;11507;44.858;10.374;2023-03-08T03:13:46;4.70;99.90
22680;DHT22;11507;44.858;10.374;2023-03-08T03:16:15;4.70;99.90
22680;DHT22;11507;44.858;10.374;2023-03-08T03:18:41;4.70;99.90
22680;DHT22;11507;44.858;10.374;2023-03-08T03:21:08;4.70;99.90
22680;DHT22;11507;44.858;10.374;2023-03-08T03:23:34;4.70;99.90
22680;DHT22;11507;44.858;10.374;2023-03-08T03:26:11;4.70;99.90
22680;DHT22;11507;44.858;10.374;2023-03-08T03:28:37;4.60;99.90
22680;DHT22;11507;44.858;10.374;2023-03-08T03:31:11;4.60;99.90
22680;DHT22;11507;44.858;10.374;2023-03-08T03:33:38;4.60;99.90
22680;DHT22;11507;44.858;10.374;2023-03-08T03:36:05;4.50;99.90
22680;DHT22;11507;44.858;10.374;2023-03-08T03:38:34;4.30;99.90
22680;DHT22;11507;44.858;10.374;2023-03-08T03:41:11;4.30;99.90
22680;DHT22;11507;44.858;10.374;2023-03-08T03:43:38;4.20;99.90
22680;DHT22;11507;44.858;10.374;2023-03-08T03:46:11;4.20;99.90
22680;DHT22;11507;44.858;10.374;2023-03-08T03:48:38;4.10;99.90
22680;DHT22;11507;44.858;10.374;2023-03-08T03:51:06;4.00;99.90
22680;DHT22;11507;44.858;10.374;2023-03-08T03:53:34;3.90;99.90
22680;DHT22;11507;44.858;10.374;2023-03-08T03:56:06;3.80;99.90
22680;DHT22;11507;44.858;10.374;2023-03-08T03:58:33;3.80;99.90
22680;DHT22;11507;44.858;10.374;2023-03-08T04:00:59;3.70;99.90
22680;DHT22;11507;44.858;10.374;2023-03-08T04:03:29;3.80;99.90
22680;DHT22;11507;44.858;10.374;2023-03-08T04:06:17;3.90;99.90
22680;DHT22;11507;44.858;10.374;2023-03-08T04:08:45;3.80;99.90
22680;DHT22;11507;44.858;10.374;2023-03-08T04:11:19;3.80;99.90
22680;DHT22;11507;44.858;10.374;2023-03-08T04:13:46;3.80;99.90
22680;DHT22;11507;44.858;10.374;2023-03-08T04:16:19;3.80;99.90
22680;DHT22;11507;44.858;10.374;2023-03-08T04:18:47;3.90;99.90
22680;DHT22;11507;44.858;10.374;2023-03-08T04:21:14;3.90;99.90
22680;DHT22;11507;44.858;10.374;2023-03-08T04:23:40;3.80;99.90
22680;DHT22;11507;44.858;10.374;2023-03-08T04:26:07;3.90;99.90
22680;DHT22;11507;44.858;10.374;2023-03-08T04:28:34;3.80;99.90
22680;DHT22;11507;44.858;10.374;2023-03-08T04:33:39;3.90;99.90
22680;DHT22;11507;44.858;10.374;2023-03-08T04:36:04;3.80;99.90
22680;DHT22;11507;44.858;10.374;2023-03-08T04:38:30;3.80;99.90
22680;DHT22;11507;44.858;10.374;2023-03-08T04:40:58;3.70;99.90
22680;DHT22;11507;44.858;10.374;2023-03-08T04:43:48;3.70;99.90
22680;DHT22;11507;44.858;10.374;2023-03-08T04:46:19;3.60;99.90
22680;DHT22;11507;44.858;10.374;2023-03-08T04:48:46;3.60;99.90
22680;DHT22;11507;44.858;10.374;2023-03-08T04:51:15;3.50;99.90
22680;DHT22;11507;44.858;10.374;2023-03-08T04:53:42;3.50;99.90
22680;DHT22;11507;44.858;10.374;2023-03-08T04:56:11;3.20;99.90
22680;DHT22;11507;44.858;10.374;2023-03-08T04:58:38;3.00;99.90
22680;DHT22;11507;44.858;10.374;2023-03-08T05:01:22;2.90;99.90
22680;DHT22;11507;44.858;10.374;2023-03-08T05:03:51;2.90;99.90
22680;DHT22;11507;44.858;10.374;2023-03-08T05:06:22;2.90;99.90
22680;DHT22;11507;44.858;10.374;2023-03-08T05:08:49;2.90;99.90
22680;DHT22;11507;44.858;10.374;2023-03-08T05:11:23;2.90;99.90
22680;DHT22;11507;44.858;10.374;2023-03-08T05:13:52;2.90;99.90
22680;DHT22;11507;44.858;10.374;2023-03-08T05:16:19;2.90;99.90
22680;DHT22;11507;44.858;10.374;2023-03-08T05:18:45;2.90;99.90
22680;DHT22;11507;44.858;10.374;2023-03-08T05:21:18;2.90;99.90
22680;DHT22;11507;44.858;10.374;2023-03-08T05:23:49;2.90;99.90
22680;DHT22;11507;44.858;10.374;2023-03-08T05:26:17;3.00;99.90
22680;DHT22;11507;44.858;10.374;2023-03-08T05:28:44;3.00;99.90
22680;DHT22;11507;44.858;10.374;2023-03-08T05:31:13;3.10;99.90
22680;DHT22;11507;44.858;10.374;2023-03-08T05:33:42;3.20;99.90
22680;DHT22;11507;44.858;10.374;2023-03-08T05:36:09;3.20;99.90
22680;DHT22;11507;44.858;10.374;2023-03-08T05:38:37;3.20;99.90
22680;DHT22;11507;44.858;10.374;2023-03-08T05:41:10;3.20;99.90
22680;DHT22;11507;44.858;10.374;2023-03-08T05:43:38;3.10;99.90
22680;DHT22;11507;44.858;10.374;2023-03-08T05:46:09;3.10;99.90
22680;DHT22;11507;44.858;10.374;2023-03-08T05:48:38;3.20;99.90
22680;DHT22;11507;44.858;10.374;2023-03-08T05:51:11;3.20;99.90
22680;DHT22;11507;44.858;10.374;2023-03-08T05:53:39;3.20;99.90
22680;DHT22;11507;44.858;10.374;2023-03-08T05:56:17;3.30;99.90
22680;DHT22;11507;44.858;10.374;2023-03-08T05:58:51;3.40;99.90
22680;DHT22;11507;44.858;10.374;2023-03-08T06:01:21;3.50;99.90
22680;DHT22;11507;44.858;10.374;2023-03-08T06:03:50;3.50;99.90
22680;DHT22;11507;44.858;10.374;2023-03-08T06:06:18;3.60;99.90
22680;DHT22;11507;44.858;10.374;2023-03-08T06:08:46;3.70;99.90
22680;DHT22;11507;44.858;10.374;2023-03-08T06:11:13;3.70;99.90
22680;DHT22;11507;44.858;10.374;2023-03-08T06:13:41;3.70;99.90
22680;DHT22;11507;44.858;10.374;2023-03-08T06:16:08;3.80;99.90
22680;DHT22;11507;44.858;10.374;2023-03-08T06:18:36;3.80;99.90
22680;DHT22;11507;44.858;10.374;2023-03-08T06:21:04;3.80;99.90
22680;DHT22;11507;44.858;10.374;2023-03-08T06:23:33;3.80;99.90
22680;DHT22;11507;44.858;10.374;2023-03-08T06:26:00;3.80;99.90
22680;DHT22;11507;44.858;10.374;2023-03-08T06:28:27;3.90;99.90
22680;DHT22;11507;44.858;10.374;2023-03-08T06:30:54;3.90;99.90
22680;DHT22;11507;44.858;10.374;2023-03-08T06:33:22;4.00;99.90
22680;DHT22;11507;44.858;10.374;2023-03-08T06:38:29;4.10;99.90
22680;DHT22;11507;44.858;10.374;2023-03-08T06:40:55;4.10;99.90
22680;DHT22;11507;44.858;10.374;2023-03-08T06:43:22;4.20;99.90
22680;DHT22;11507;44.858;10.374;2023-03-08T06:45:48;4.20;99.90
22680;DHT22;11507;44.858;10.374;2023-03-08T06:48:15;4.20;99.90
22680;DHT22;11507;44.858;10.374;2023-03-08T06:50:41;4.30;99.90
22680;DHT22;11507;44.858;10.374;2023-03-08T06:53:08;4.40;99.90
22680;DHT22;11507;44.858;10.374;2023-03-08T06:55:47;4.40;99.90
22680;DHT22;11507;44.858;10.374;2023-03-08T06:58:14;4.40;99.90
22680;DHT22;11507;44.858;10.374;2023-03-08T07:00:40;4.70;99.90
22680;DHT22;11507;44.858;10.374;2023-03-08T07:03:06;4.90;99.90
22680;DHT22;11507;44.858;10.374;2023-03-08T07:05:32;5.10;99.90
22680;DHT22;11507;44.858;10.374;2023-03-08T07:07:57;5.40;99.90
22680;DHT22;11507;44.858;10.374;2023-03-08T07:10:23;5.60;99.90
22680;DHT22;11507;44.858;10.374;2023-03-08T07:12:50;5.80;99.90
22680;DHT22;11507;44.858;10.374;2023-03-08T07:15:20;6.00;99.90
22680;DHT22;11507;44.858;10.374;2023-03-08T07:17:47;6.30;99.90
22680;DHT22;11507;44.858;10.374;2023-03-08T07:20:16;6.50;99.90
22680;DHT22;11507;44.858;10.374;2023-03-08T07:22:43;6.80;99.90
22680;DHT22;11507;44.858;10.374;2023-03-08T07:25:19;7.10;99.90
22680;DHT22;11507;44.858;10.374;2023-03-08T07:27:46;7.30;99.90
22680;DHT22;11507;44.858;10.374;2023-03-08T07:30:14;7.50;99.90
22680;DHT22;11507;44.858;10.374;2023-03-08T07:32:41;7.70;99.90
22680;DHT22;11507;44.858;10.374;2023-03-08T07:35:09;8.00;99.90
22680;DHT22;11507;44.858;10.374;2023-03-08T07:37:36;8.20;99.90
22680;DHT22;11507;44.858;10.374;2023-03-08T07:40:02;8.40;99.90
22680;DHT22;11507;44.858;10.374;2023-03-08T07:42:29;8.60;99.90
22680;DHT22;11507;44.858;10.374;2023-03-08T07:45:00;8.70;99.90
22680;DHT22;11507;44.858;10.374;2023-03-08T07:47:26;8.90;99.90
22680;DHT22;11507;44.858;10.374;2023-03-08T07:49:52;9.00;99.90
22680;DHT22;11507;44.858;10.374;2023-03-08T07:52:18;9.10;99.90
22680;DHT22;11507;44.858;10.374;2023-03-08T07:54:44;9.20;99.90
22680;DHT22;11507;44.858;10.374;2023-03-08T07:57:13;9.30;99.90
22680;DHT22;11507;44.858;10.374;2023-03-08T07:59:40;9.40;99.90
22680;DHT22;11507;44.858;10.374;2023-03-08T08:02:12;9.50;99.90
22680;DHT22;11507;44.858;10.374;2023-03-08T08:04:42;9.60;99.90
22680;DHT22;11507;44.858;10.374;2023-03-08T08:07:13;9.80;99.90
22680;DHT22;11507;44.858;10.374;2023-03-08T08:09:41;10.00;99.90
22680;DHT22;11507;44.858;10.374;2023-03-08T08:12:08;10.00;99.90
22680;DHT22;11507;44.858;10.374;2023-03-08T08:14:34;10.20;99.90
22680;DHT22;11507;44.858;10.374;2023-03-08T08:17:01;10.20;99.90
22680;DHT22;11507;44.858;10.374;2023-03-08T08:19:26;10.40;99.90
22680;DHT22;11507;44.858;10.374;2023-03-08T08:21:56;10.50;99.90
22680;DHT22;11507;44.858;10.374;2023-03-08T08:24:23;10.50;99.90
22680;DHT22;11507;44.858;10.374;2023-03-08T08:26:49;10.60;99.90
22680;DHT22;11507;44.858;10.374;2023-03-08T08:29:16;10.70;99.90
22680;DHT22;11507;44.858;10.374;2023-03-08T08:31:42;10.90;99.90
22680;DHT22;11507;44.858;10.374;2023-03-08T08:34:10;11.00;99.90
22680;DHT22;11507;44.858;10.374;2023-03-08T08:36:36;11.20;99.90
22680;DHT22;11507;44.858;10.374;2023-03-08T08:39:03;11.40;99.90
22680;DHT22;11507;44.858;10.374;2023-03-08T08:41:31;11.60;99.90
22680;DHT22;11507;44.858;10.374;2023-03-08T08:43:58;12.10;99.90
22680;DHT22;11507;44.858;10.374;2023-03-08T08:46:28;12.40;99.90
22680;DHT22;11507;44.858;10.374;2023-03-08T08:48:58;12.70;99.90
22680;DHT22;11507;44.858;10.374;2023-03-08T08:51:29;13.20;99.90
22680;DHT22;11507;44.858;10.374;2023-03-08T08:53:56;13.60;99.90
22680;DHT22;11507;44.858;10.374;2023-03-08T08:56:23;13.80;99.90
22680;DHT22;11507;44.858;10.374;2023-03-08T08:58:57;14.00;99.90
22680;DHT22;11507;44.858;10.374;2023-03-08T09:01:30;14.30;99.90
22680;DHT22;11507;44.858;10.374;2023-03-08T09:03:58;14.90;99.90
22680;DHT22;11507;44.858;10.374;2023-03-08T09:06:26;15.30;99.90
22680;DHT22;11507;44.858;10.374;2023-03-08T09:08:57;15.70;99.90
22680;DHT22;11507;44.858;10.374;2023-03-08T09:11:26;16.10;99.90
22680;DHT22;11507;44.858;10.374;2023-03-08T09:14:00;16.70;99.90
22680;DHT22;11507;44.858;10.374;2023-03-08T09:16:32;17.10;99.90
22680;DHT22;11507;44.858;10.374;2023-03-08T09:19:02;17.50;99.90
22680;DHT22;11507;44.858;10.374;2023-03-08T09:21:30;17.60;99.90
22680;DHT22;11507;44.858;10.374;2023-03-08T09:23:59;17.80;99.90
22680;DHT22;11507;44.858;10.374;2023-03-08T09:26:29;18.30;99.90
22680;DHT22;11507;44.858;10.374;2023-03-08T09:29:00;18.80;99.90
22680;DHT22;11507;44.858;10.374;2023-03-08T09:31:31;19.20;99.90
22680;DHT22;11507;44.858;10.374;2023-03-08T09:33:58;19.60;99.90
22680;DHT22;11507;44.858;10.374;2023-03-08T09:36:25;20.00;99.00
22680;DHT22;11507;44.858;10.374;2023-03-08T09:38:55;20.60;97.10
22680;DHT22;11507;44.858;10.374;2023-03-08T09:44:10;20.60;97.00
22680;DHT22;11507;44.858;10.374;2023-03-08T09:46:50;21.40;97.10
22680;DHT22;11507;44.858;10.374;2023-03-08T09:49:28;21.80;95.60
22680;DHT22;11507;44.858;10.374;2023-03-08T09:54:47;21.20;91.40
22680;DHT22;11507;44.858;10.374;2023-03-08T09:57:22;21.40;91.10
22680;DHT22;11507;44.858;10.374;2023-03-08T09:59:57;21.50;90.20
22680;DHT22;11507;44.858;10.374;2023-03-08T10:05:20;22.30;91.30
22680;DHT22;11507;44.858;10.374;2023-03-08T10:13:35;22.50;88.00
22680;DHT22;11507;44.858;10.374;2023-03-08T10:16:21;22.90;86.00
22680;DHT22;11507;44.858;10.374;2023-03-08T10:18:55;23.20;84.30
22680;DHT22;11507;44.858;10.374;2023-03-08T10:21:25;24.20;89.00
22680;DHT22;11507;44.858;10.374;2023-03-08T10:26:37;26.10;80.40
22680;DHT22;11507;44.858;10.374;2023-03-08T10:29:03;26.80;77.80
22680;DHT22;11507;44.858;10.374;2023-03-08T10:31:30;26.80;71.60
22680;DHT22;11507;44.858;10.374;2023-03-08T10:34:17;27.00;73.20
22680;DHT22;11507;44.858;10.374;2023-03-08T10:36:52;27.40;75.40
22680;DHT22;11507;44.858;10.374;2023-03-08T10:39:22;27.80;70.80
22680;DHT22;11507;44.858;10.374;2023-03-08T10:41:54;28.30;71.50
22680;DHT22;11507;44.858;10.374;2023-03-08T10:44:42;28.70;68.90
22680;DHT22;11507;44.858;10.374;2023-03-08T10:47:27;29.10;66.20
22680;DHT22;11507;44.858;10.374;2023-03-08T10:52:31;28.50;63.60
22680;DHT22;11507;44.858;10.374;2023-03-08T10:55:08;28.90;63.80
22680;DHT22;11507;44.858;10.374;2023-03-08T10:57:35;29.10;60.60
22680;DHT22;11507;44.858;10.374;2023-03-08T11:02:42;29.30;59.20
22680;DHT22;11507;44.858;10.374;2023-03-08T11:05:23;29.60;58.60
22680;DHT22;11507;44.858;10.374;2023-03-08T11:07:56;29.20;57.20
22680;DHT22;11507;44.858;10.374;2023-03-08T11:13:22;27.90;63.30
22680;DHT22;11507;44.858;10.374;2023-03-08T11:16:12;28.40;62.90
22680;DHT22;11507;44.858;10.374;2023-03-08T11:26:59;28.40;60.30
22680;DHT22;11507;44.858;10.374;2023-03-08T11:32:42;28.60;56.50
22680;DHT22;11507;44.858;10.374;2023-03-08T11:38:05;26.90;58.40
22680;DHT22;11507;44.858;10.374;2023-03-08T11:41:23;26.00;61.60
22680;DHT22;11507;44.858;10.374;2023-03-08T11:54:49;25.20;62.90
22680;DHT22;11507;44.858;10.374;2023-03-08T11:57:17;25.10;64.20
22680;DHT22;11507;44.858;10.374;2023-03-08T11:59:58;24.90;62.30
22680;DHT22;11507;44.858;10.374;2023-03-08T12:02:32;24.60;63.70
22680;DHT22;11507;44.858;10.374;2023-03-08T12:05:29;24.60;64.30
22680;DHT22;11507;44.858;10.374;2023-03-08T12:16:01;28.60;55.50
22680;DHT22;11507;44.858;10.374;2023-03-08T12:22:07;29.90;56.70
22680;DHT22;11507;44.858;10.374;2023-03-08T12:25:08;30.90;57.10
22680;DHT22;11507;44.858;10.374;2023-03-08T12:27:53;31.40;54.80
22680;DHT22;11507;44.858;10.374;2023-03-08T12:33:25;31.10;53.20
22680;DHT22;11507;44.858;10.374;2023-03-08T12:36:06;31.10;50.20
22680;DHT22;11507;44.858;10.374;2023-03-08T12:38:41;30.60;52.00
22680;DHT22;11507;44.858;10.374;2023-03-08T12:44:23;30.30;54.90
22680;DHT22;11507;44.858;10.374;2023-03-08T12:47:16;30.50;51.40
22680;DHT22;11507;44.858;10.374;2023-03-08T12:49:46;30.40;54.00
22680;DHT22;11507;44.858;10.374;2023-03-08T12:54:59;30.00;51.20
22680;DHT22;11507;44.858;10.374;2023-03-08T12:57:37;29.50;53.10
22680;DHT22;11507;44.858;10.374;2023-03-08T13:00:32;29.20;54.20
22680;DHT22;11507;44.858;10.374;2023-03-08T13:03:06;29.50;53.60
22680;DHT22;11507;44.858;10.374;2023-03-08T13:05:52;30.50;53.20
22680;DHT22;11507;44.858;10.374;2023-03-08T13:08:30;30.50;49.80
22680;DHT22;11507;44.858;10.374;2023-03-08T13:11:09;30.30;50.50
22680;DHT22;11507;44.858;10.374;2023-03-08T13:14:21;29.50;50.30
22680;DHT22;11507;44.858;10.374;2023-03-08T13:16:48;29.10;52.80
22680;DHT22;11507;44.858;10.374;2023-03-08T13:22:09;29.10;50.50
22680;DHT22;11507;44.858;10.374;2023-03-08T13:32:59;28.70;52.80
22680;DHT22;11507;44.858;10.374;2023-03-08T13:35:29;29.10;54.00
22680;DHT22;11507;44.858;10.374;2023-03-08T13:37:57;30.20;55.20
22680;DHT22;11507;44.858;10.374;2023-03-08T13:40:27;30.70;51.70
22680;DHT22;11507;44.858;10.374;2023-03-08T13:43:04;31.40;51.80
22680;DHT22;11507;44.858;10.374;2023-03-08T13:45:34;31.90;48.50
22680;DHT22;11507;44.858;10.374;2023-03-08T13:48:06;32.00;46.90
22680;DHT22;11507;44.858;10.374;2023-03-08T13:50:45;30.80;47.60
22680;DHT22;11507;44.858;10.374;2023-03-08T13:53:33;29.70;49.40
22680;DHT22;11507;44.858;10.374;2023-03-08T13:56:03;28.40;51.20
22680;DHT22;11507;44.858;10.374;2023-03-08T13:58:38;28.70;52.70
22680;DHT22;11507;44.858;10.374;2023-03-08T14:01:18;29.30;51.00
22680;DHT22;11507;44.858;10.374;2023-03-08T14:03:48;29.70;52.20
22680;DHT22;11507;44.858;10.374;2023-03-08T14:06:27;30.00;52.80
22680;DHT22;11507;44.858;10.374;2023-03-08T14:08:56;29.40;49.70
22680;DHT22;11507;44.858;10.374;2023-03-08T14:11:29;28.50;52.20
22680;DHT22;11507;44.858;10.374;2023-03-08T14:13:58;27.30;52.70
22680;DHT22;11507;44.858;10.374;2023-03-08T14:16:38;26.20;55.10
22680;DHT22;11507;44.858;10.374;2023-03-08T14:19:25;25.10;56.40
22680;DHT22;11507;44.858;10.374;2023-03-08T14:21:54;24.00;60.50
22680;DHT22;11507;44.858;10.374;2023-03-08T14:24:23;23.20;60.90
22680;DHT22;11507;44.858;10.374;2023-03-08T14:29:28;22.00;65.80
22680;DHT22;11507;44.858;10.374;2023-03-08T14:34:44;21.40;68.30
22680;DHT22;11507;44.858;10.374;2023-03-08T14:37:25;20.80;67.70
22680;DHT22;11507;44.858;10.374;2023-03-08T14:39:54;20.20;69.60
22680;DHT22;11507;44.858;10.374;2023-03-08T14:42:40;19.90;72.70
22680;DHT22;11507;44.858;10.374;2023-03-08T14:48:23;19.10;73.00
22680;DHT22;11507;44.858;10.374;2023-03-08T14:53:40;18.40;77.60
22680;DHT22;11507;44.858;10.374;2023-03-08T14:56:16;18.20;77.00
22680;DHT22;11507;44.858;10.374;2023-03-08T14:58:46;17.90;78.40
22680;DHT22;11507;44.858;10.374;2023-03-08T15:03:50;17.20;80.10
22680;DHT22;11507;44.858;10.374;2023-03-08T15:06:21;17.10;81.70
22680;DHT22;11507;44.858;10.374;2023-03-08T15:08:49;16.80;81.70
22680;DHT22;11507;44.858;10.374;2023-03-08T15:11:15;16.70;83.50
22680;DHT22;11507;44.858;10.374;2023-03-08T15:13:43;16.60;83.20
22680;DHT22;11507;44.858;10.374;2023-03-08T15:16:10;16.50;84.30
22680;DHT22;11507;44.858;10.374;2023-03-08T15:18:36;16.30;84.90
22680;DHT22;11507;44.858;10.374;2023-03-08T15:21:02;16.20;84.20
22680;DHT22;11507;44.858;10.374;2023-03-08T15:23:35;16.10;85.40
22680;DHT22;11507;44.858;10.374;2023-03-08T15:26:04;15.90;87.10
22680;DHT22;11507;44.858;10.374;2023-03-08T15:28:31;15.80;87.30
22680;DHT22;11507;44.858;10.374;2023-03-08T15:30:58;15.70;87.30
22680;DHT22;11507;44.858;10.374;2023-03-08T15:33:23;15.60;88.50
22680;DHT22;11507;44.858;10.374;2023-03-08T15:35:51;15.60;89.10
22680;DHT22;11507;44.858;10.374;2023-03-08T15:38:17;15.50;90.30
22680;DHT22;11507;44.858;10.374;2023-03-08T15:40:43;15.50;90.70
22680;DHT22;11507;44.858;10.374;2023-03-08T15:43:10;15.40;90.60
22680;DHT22;11507;44.858;10.374;2023-03-08T15:45:36;15.40;91.10
22680;DHT22;11507;44.858;10.374;2023-03-08T15:48:06;15.40;91.40
22680;DHT22;11507;44.858;10.374;2023-03-08T15:50:33;15.50;91.70
22680;DHT22;11507;44.858;10.374;2023-03-08T15:53:00;15.50;91.20
22680;DHT22;11507;44.858;10.374;2023-03-08T15:55:29;15.50;90.70
22680;DHT22;11507;44.858;10.374;2023-03-08T15:57:55;15.50;91.60
22680;DHT22;11507;44.858;10.374;2023-03-08T16:00:23;15.50;90.80
22680;DHT22;11507;44.858;10.374;2023-03-08T16:02:51;15.50;92.40
22680;DHT22;11507;44.858;10.374;2023-03-08T16:05:20;15.50;91.90
22680;DHT22;11507;44.858;10.374;2023-03-08T16:08:00;15.50;92.50
22680;DHT22;11507;44.858;10.374;2023-03-08T16:10:30;15.50;93.20
22680;DHT22;11507;44.858;10.374;2023-03-08T16:12:56;15.50;92.70
22680;DHT22;11507;44.858;10.374;2023-03-08T16:15:24;15.60;92.80
22680;DHT22;11507;44.858;10.374;2023-03-08T16:17:50;15.60;93.40
22680;DHT22;11507;44.858;10.374;2023-03-08T16:20:23;15.60;93.80
22680;DHT22;11507;44.858;10.374;2023-03-08T16:22:51;15.60;94.00
22680;DHT22;11507;44.858;10.374;2023-03-08T16:25:17;15.50;94.20
22680;DHT22;11507;44.858;10.374;2023-03-08T16:27:43;15.50;95.00
22680;DHT22;11507;44.858;10.374;2023-03-08T16:30:10;15.40;95.00
22680;DHT22;11507;44.858;10.374;2023-03-08T16:32:39;15.30;95.50
22680;DHT22;11507;44.858;10.374;2023-03-08T16:35:06;15.30;95.00
22680;DHT22;11507;44.858;10.374;2023-03-08T16:37:34;15.30;95.80
22680;DHT22;11507;44.858;10.374;2023-03-08T16:40:00;15.20;97.30
22680;DHT22;11507;44.858;10.374;2023-03-08T16:42:28;15.10;97.50
22680;DHT22;11507;44.858;10.374;2023-03-08T16:44:55;15.10;98.10
22680;DHT22;11507;44.858;10.374;2023-03-08T16:47:23;15.00;99.30
22680;DHT22;11507;44.858;10.374;2023-03-08T16:49:52;14.90;99.90
22680;DHT22;11507;44.858;10.374;2023-03-08T16:52:19;14.80;99.90
22680;DHT22;11507;44.858;10.374;2023-03-08T16:54:46;14.70;99.90
22680;DHT22;11507;44.858;10.374;2023-03-08T16:57:14;14.60;99.90
22680;DHT22;11507;44.858;10.374;2023-03-08T16:59:41;14.60;99.90
22680;DHT22;11507;44.858;10.374;2023-03-08T17:02:20;14.50;99.90
22680;DHT22;11507;44.858;10.374;2023-03-08T17:04:47;14.50;99.90
22680;DHT22;11507;44.858;10.374;2023-03-08T17:07:14;14.60;99.90
22680;DHT22;11507;44.858;10.374;2023-03-08T17:09:40;14.70;99.90
22680;DHT22;11507;44.858;10.374;2023-03-08T17:12:09;14.60;99.90
22680;DHT22;11507;44.858;10.374;2023-03-08T17:14:36;14.70;99.90
22680;DHT22;11507;44.858;10.374;2023-03-08T17:17:03;14.60;99.90
22680;DHT22;11507;44.858;10.374;2023-03-08T17:19:29;14.60;99.90
22680;DHT22;11507;44.858;10.374;2023-03-08T17:21:55;14.60;99.90
22680;DHT22;11507;44.858;10.374;2023-03-08T17:24:23;14.60;99.90